createdAt,value
2023-02-01T00:13:06.473Z,11.10
2023-02-01T00:28:10.842Z,11.30
2023-02-01T00:43:15.284Z,11.30
2023-02-01T00:58:19.726Z,11.30
2023-02-01T01:13:25.452Z,11.40
2023-02-01T01:28:29.845Z,11.20
2023-02-01T01:43:53.824Z,11.30
2023-02-01T01:59:00.740Z,11.50
2023-02-01T02:14:08.821Z,12.00
2023-02-01T02:29:42.147Z,11.70
2023-02-01T02:45:08.318Z,11.30
2023-02-01T03:00:35.443Z,11.30
2023-02-01T03:15:44.308Z,11.40
2023-02-01T03:30:50.113Z,11.00
2023-02-01T03:46:00.158Z,11.10
2023-02-01T04:01:05.339Z,11.20
2023-02-01T04:16:12.816Z,11.20
2023-02-01T04:31:17.862Z,11.10
2023-02-01T04:46:22.507Z,11.40
2023-02-01T05:01:27.030Z,10.90
2023-02-01T05:16:31.599Z,10.70
2023-02-01T05:31:36.250Z,10.60
2023-02-01T05:46:40.772Z,10.50
2023-02-01T06:01:45.316Z,10.60
2023-02-01T06:16:49.684Z,10.50
2023-02-01T06:31:54.394Z,10.80
2023-02-01T06:46:58.920Z,10.90
2023-02-01T07:02:03.478Z,10.60
2023-02-01T07:17:08.162Z,10.40
2023-02-01T07:32:12.637Z,11.30
2023-02-01T07:47:18.256Z,10.30
2023-02-01T08:02:22.824Z,10.60
2023-02-01T08:17:28.717Z,10.60
2023-02-01T08:32:34.965Z,11.00
2023-02-01T08:47:39.916Z,10.60
2023-02-01T09:02:45.133Z,11.00
2023-02-01T09:17:49.948Z,11.00
2023-02-01T09:32:54.563Z,10.90
2023-02-01T09:48:03.814Z,10.90
2023-02-01T10:03:14.011Z,11.00
2023-02-01T10:18:44.286Z,10.90
2023-02-01T10:33:52.290Z,11.10
2023-02-01T10:48:58.263Z,11.40
2023-02-01T11:04:04.599Z,11.30
2023-02-01T11:19:09.434Z,11.40
2023-02-01T11:34:17.953Z,11.90
2023-02-01T11:49:25.274Z,11.50
2023-02-01T12:05:04.049Z,11.40
2023-02-01T12:20:25.658Z,11.70
2023-02-01T12:35:46.547Z,12.10
2023-02-01T12:50:54.903Z,13.10
2023-02-01T13:06:06.011Z,12.20
2023-02-01T13:21:15.938Z,12.20
2023-02-01T13:36:44.738Z,12.40
2023-02-01T13:51:52.773Z,12.20
2023-02-01T14:06:59.209Z,12.50
2023-02-01T14:22:36.473Z,12.40
2023-02-01T14:37:41.552Z,12.30
2023-02-01T14:52:48.676Z,12.60
2023-02-01T15:07:54.222Z,12.20
2023-02-01T15:23:02.511Z,12.90
2023-02-01T15:38:37.574Z,13.00
2023-02-01T15:53:48.133Z,12.70
2023-02-01T16:08:56.771Z,12.60
2023-02-01T16:24:04.835Z,12.40
2023-02-01T16:39:11.256Z,12.20
2023-02-01T16:54:15.723Z,12.50
2023-02-01T17:09:21.709Z,12.20
2023-02-01T17:24:33.255Z,12.10
2023-02-01T17:39:58.460Z,12.00
2023-02-01T17:55:04.721Z,12.10
2023-02-01T18:10:11.315Z,11.90
2023-02-01T18:25:21.379Z,11.70
2023-02-01T18:40:28.620Z,12.00
2023-02-01T18:55:33.914Z,11.90
2023-02-01T19:10:38.951Z,11.80
2023-02-01T19:25:46.925Z,11.60
2023-02-01T19:40:51.623Z,11.60
2023-02-01T19:55:58.036Z,11.50
2023-02-01T20:11:01.714Z,11.90
2023-02-01T20:26:08.983Z,11.70
2023-02-01T20:41:13.820Z,11.70
2023-02-01T20:56:18.693Z,11.70
2023-02-01T21:11:23.050Z,11.60
